sensor_id;sensor_type;location;lat;lon;timestamp;pressure;altitude;pressure_sealevel;temperature;humidity
12951;BME280;6540;50.858;7.232;2023-02-11T00:01:21;51886.81;;;-142.34;27.94
12951;BME280;6540;50.858;7.232;2023-02-11T00:03:48;51909.00;;;-142.34;28.36
12951;BME280;6540;50.858;7.232;2023-02-11T00:06:13;51927.16;;;-142.34;28.49
12951;BME280;6540;50.858;7.232;2023-02-11T00:08:39;51907.00;;;-142.34;28.41
12951;BME280;6540;50.858;7.232;2023-02-11T00:11:04;51935.25;;;-142.34;28.90
12951;BME280;6540;50.858;7.232;2023-02-11T00:13:30;51919.09;;;-142.34;29.34
12951;BME280;6540;50.858;7.232;2023-02-11T00:15:55;51923.13;;;-142.34;28.67
12951;BME280;6540;50.858;7.232;2023-02-11T00:18:21;51878.75;;;-142.34;28.71
12951;BME280;6540;50.858;7.232;2023-02-11T00:20:46;51907.00;;;-142.34;29.29
12951;BME280;6540;50.858;7.232;2023-02-11T00:23:12;51927.16;;;-142.34;28.59
12951;BME280;6540;50.858;7.232;2023-02-11T00:25:41;51939.28;;;-142.34;28.57
12951;BME280;6540;50.858;7.232;2023-02-11T00:28:08;51935.25;;;-142.34;28.26
12951;BME280;6540;50.858;7.232;2023-02-11T00:30:34;51937.25;;;-142.34;28.45
12951;BME280;6540;50.858;7.232;2023-02-11T00:32:59;51864.63;;;-142.34;28.29
12951;BME280;6540;50.858;7.232;2023-02-11T00:35:25;51904.97;;;-142.34;29.05
12951;BME280;6540;50.858;7.232;2023-02-11T00:37:53;51902.97;;;-142.34;28.96
12951;BME280;6540;50.858;7.232;2023-02-11T00:40:18;51917.06;;;-142.34;28.39
12951;BME280;6540;50.858;7.232;2023-02-11T00:42:44;51915.06;;;-142.34;28.46
12951;BME280;6540;50.858;7.232;2023-02-11T00:45:10;51917.06;;;-142.34;28.11
12951;BME280;6540;50.858;7.232;2023-02-11T00:47:35;51913.03;;;-142.34;28.27
12951;BME280;6540;50.858;7.232;2023-02-11T00:50:02;51923.13;;;-142.34;28.10
12951;BME280;6540;50.858;7.232;2023-02-11T00:52:29;51919.09;;;-142.34;28.42
12951;BME280;6540;50.858;7.232;2023-02-11T00:54:55;51896.91;;;-142.34;28.75
12951;BME280;6540;50.858;7.232;2023-02-11T00:57:20;51915.06;;;-142.34;28.73
12951;BME280;6540;50.858;7.232;2023-02-11T00:59:45;51927.16;;;-142.34;28.89
12951;BME280;6540;50.858;7.232;2023-02-11T01:02:11;51943.31;;;-142.34;28.36
12951;BME280;6540;50.858;7.232;2023-02-11T01:04:36;51931.19;;;-142.34;28.99
12951;BME280;6540;50.858;7.232;2023-02-11T01:07:01;51907.00;;;-142.34;28.49
12951;BME280;6540;50.858;7.232;2023-02-11T01:09:27;51927.16;;;-142.34;28.63
12951;BME280;6540;50.858;7.232;2023-02-11T01:11:52;51927.16;;;-142.34;29.53
12951;BME280;6540;50.858;7.232;2023-02-11T01:14:18;51927.16;;;-142.34;29.17
12951;BME280;6540;50.858;7.232;2023-02-11T01:16:43;51929.19;;;-142.34;28.86
12951;BME280;6540;50.858;7.232;2023-02-11T01:19:09;51923.13;;;-142.34;29.51
12951;BME280;6540;50.858;7.232;2023-02-11T01:21:34;51915.06;;;-142.34;29.35
12951;BME280;6540;50.858;7.232;2023-02-11T01:23:59;51882.78;;;-142.34;29.42
12951;BME280;6540;50.858;7.232;2023-02-11T01:26:25;51923.13;;;-142.34;28.59
12951;BME280;6540;50.858;7.232;2023-02-11T01:28:50;51951.38;;;-142.34;29.14
12951;BME280;6540;50.858;7.232;2023-02-11T01:31:15;51902.97;;;-142.34;28.68
12951;BME280;6540;50.858;7.232;2023-02-11T01:33:41;51935.25;;;-142.34;28.90
12951;BME280;6540;50.858;7.232;2023-02-11T01:36:07;51898.94;;;-142.34;28.58
12951;BME280;6540;50.858;7.232;2023-02-11T01:38:33;51923.13;;;-142.34;28.75
12951;BME280;6540;50.858;7.232;2023-02-11T01:41:02;51937.25;;;-142.34;28.84
12951;BME280;6540;50.858;7.232;2023-02-11T01:43:31;51913.03;;;-142.34;28.78
12951;BME280;6540;50.858;7.232;2023-02-11T01:48:33;51911.03;;;-142.34;28.40
12951;BME280;6540;50.858;7.232;2023-02-11T01:51:08;51927.16;;;-142.34;28.28
12951;BME280;6540;50.858;7.232;2023-02-11T01:53:35;51943.31;;;-142.34;28.07
12951;BME280;6540;50.858;7.232;2023-02-11T01:56:21;51925.16;;;-142.34;28.77
12951;BME280;6540;50.858;7.232;2023-02-11T01:59:13;51935.25;;;-142.34;28.32
12951;BME280;6540;50.858;7.232;2023-02-11T02:01:45;51919.09;;;-142.34;28.30
12951;BME280;6540;50.858;7.232;2023-02-11T02:04:16;51900.94;;;-142.34;28.97
12951;BME280;6540;50.858;7.232;2023-02-11T02:06:48;51915.06;;;-142.34;28.84
12951;BME280;6540;50.858;7.232;2023-02-11T02:09:24;51933.22;;;-142.34;28.40
12951;BME280;6540;50.858;7.232;2023-02-11T02:11:53;51927.16;;;-142.34;28.22
12951;BME280;6540;50.858;7.232;2023-02-11T02:14:19;51909.00;;;-142.34;28.17
12951;BME280;6540;50.858;7.232;2023-02-11T02:16:44;51923.13;;;-142.34;28.22
12951;BME280;6540;50.858;7.232;2023-02-11T02:30:15;51913.03;;;-142.34;28.25
12951;BME280;6540;50.858;7.232;2023-02-11T02:32:48;51923.13;;;-142.34;28.53
12951;BME280;6540;50.858;7.232;2023-02-11T02:38:15;51963.47;;;-142.34;29.26
12951;BME280;6540;50.858;7.232;2023-02-11T02:40:49;51939.28;;;-142.34;29.24
12951;BME280;6540;50.858;7.232;2023-02-11T02:43:18;51909.00;;;-142.34;28.83
12951;BME280;6540;50.858;7.232;2023-02-11T02:45:45;51943.31;;;-142.34;28.97
12951;BME280;6540;50.858;7.232;2023-02-11T02:48:25;51977.59;;;-142.34;29.36
12951;BME280;6540;50.858;7.232;2023-02-11T02:50:56;51929.19;;;-142.34;29.43
12951;BME280;6540;50.858;7.232;2023-02-11T02:53:54;51925.16;;;-142.34;28.75
12951;BME280;6540;50.858;7.232;2023-02-11T02:59:28;51947.34;;;-142.34;28.27
12951;BME280;6540;50.858;7.232;2023-02-11T03:07:22;51923.13;;;-142.34;29.17
12951;BME280;6540;50.858;7.232;2023-02-11T03:09:54;51935.25;;;-142.34;28.54
12951;BME280;6540;50.858;7.232;2023-02-11T03:12:23;51902.97;;;-142.34;28.65
12951;BME280;6540;50.858;7.232;2023-02-11T03:14:50;51907.00;;;-142.34;28.50
12951;BME280;6540;50.858;7.232;2023-02-11T03:17:16;51951.38;;;-142.34;28.41
12951;BME280;6540;50.858;7.232;2023-02-11T03:19:45;51915.06;;;-142.34;28.34
12951;BME280;6540;50.858;7.232;2023-02-11T03:22:21;51971.53;;;-142.34;28.34
12951;BME280;6540;50.858;7.232;2023-02-11T03:24:50;51935.25;;;-142.34;28.50
12951;BME280;6540;50.858;7.232;2023-02-11T03:27:33;51896.91;;;-142.34;28.24
12951;BME280;6540;50.858;7.232;2023-02-11T03:30:16;51931.19;;;-142.34;29.60
12951;BME280;6540;50.858;7.232;2023-02-11T03:32:55;51915.06;;;-142.34;29.66
12951;BME280;6540;50.858;7.232;2023-02-11T03:35:30;51894.88;;;-142.34;30.04
12951;BME280;6540;50.858;7.232;2023-02-11T03:38:00;51935.25;;;-142.34;29.26
12951;BME280;6540;50.858;7.232;2023-02-11T03:40:31;51927.16;;;-142.34;29.05
12951;BME280;6540;50.858;7.232;2023-02-11T03:43:02;51951.38;;;-142.34;28.36
12951;BME280;6540;50.858;7.232;2023-02-11T03:45:31;51935.25;;;-142.34;28.75
12951;BME280;6540;50.858;7.232;2023-02-11T03:48:03;51907.00;;;-142.34;28.27
12951;BME280;6540;50.858;7.232;2023-02-11T03:50:31;51941.28;;;-142.34;29.14
12951;BME280;6540;50.858;7.232;2023-02-11T03:53:00;51890.84;;;-142.34;28.87
12951;BME280;6540;50.858;7.232;2023-02-11T03:55:27;51907.00;;;-142.34;29.05
12951;BME280;6540;50.858;7.232;2023-02-11T03:57:53;51913.03;;;-142.34;29.73
12951;BME280;6540;50.858;7.232;2023-02-11T04:00:18;51947.34;;;-142.34;29.60
12951;BME280;6540;50.858;7.232;2023-02-11T04:02:44;51929.19;;;-142.34;29.15
12951;BME280;6540;50.858;7.232;2023-02-11T04:05:12;51894.88;;;-142.34;28.88
12951;BME280;6540;50.858;7.232;2023-02-11T04:07:38;51911.03;;;-142.34;28.66
12951;BME280;6540;50.858;7.232;2023-02-11T04:10:04;51917.06;;;-142.34;29.49
12951;BME280;6540;50.858;7.232;2023-02-11T04:12:29;51933.22;;;-142.34;28.84
12951;BME280;6540;50.858;7.232;2023-02-11T04:14:55;51935.25;;;-142.34;28.88
12951;BME280;6540;50.858;7.232;2023-02-11T04:17:20;51923.13;;;-142.34;28.47
12951;BME280;6540;50.858;7.232;2023-02-11T04:19:46;51933.22;;;-142.34;28.54
12951;BME280;6540;50.858;7.232;2023-02-11T04:22:11;51911.03;;;-142.34;29.17
12951;BME280;6540;50.858;7.232;2023-02-11T04:24:36;51927.16;;;-142.34;29.07
12951;BME280;6540;50.858;7.232;2023-02-11T04:27:02;51941.28;;;-142.34;28.28
12951;BME280;6540;50.858;7.232;2023-02-11T04:29:27;51935.25;;;-142.34;28.92
12951;BME280;6540;50.858;7.232;2023-02-11T04:31:53;51919.09;;;-142.34;29.65
12951;BME280;6540;50.858;7.232;2023-02-11T04:34:18;51911.03;;;-142.34;29.46
12951;BME280;6540;50.858;7.232;2023-02-11T04:36:44;51947.34;;;-142.34;29.51
12951;BME280;6540;50.858;7.232;2023-02-11T04:39:09;51935.25;;;-142.34;29.73
12951;BME280;6540;50.858;7.232;2023-02-11T04:41:35;51953.41;;;-142.34;28.64
12951;BME280;6540;50.858;7.232;2023-02-11T04:44:00;51898.94;;;-142.34;28.57
12951;BME280;6540;50.858;7.232;2023-02-11T04:46:26;51935.25;;;-142.34;28.71
12951;BME280;6540;50.858;7.232;2023-02-11T04:48:51;51923.13;;;-142.34;28.96
12951;BME280;6540;50.858;7.232;2023-02-11T04:51:16;51913.03;;;-142.34;28.36
12951;BME280;6540;50.858;7.232;2023-02-11T04:53:42;51937.25;;;-142.34;28.48
12951;BME280;6540;50.858;7.232;2023-02-11T04:56:07;51951.38;;;-142.34;28.85
12951;BME280;6540;50.858;7.232;2023-02-11T04:58:33;51919.09;;;-142.34;28.70
12951;BME280;6540;50.858;7.232;2023-02-11T05:01:10;51957.44;;;-142.34;28.17
12951;BME280;6540;50.858;7.232;2023-02-11T05:03:36;51915.06;;;-142.34;28.58
12951;BME280;6540;50.858;7.232;2023-02-11T05:06:02;51955.41;;;-142.34;28.46
12951;BME280;6540;50.858;7.232;2023-02-11T05:08:28;51939.28;;;-142.34;28.82
12951;BME280;6540;50.858;7.232;2023-02-11T05:10:54;51931.19;;;-142.34;29.47
12951;BME280;6540;50.858;7.232;2023-02-11T05:13:19;51929.19;;;-142.34;29.55
12951;BME280;6540;50.858;7.232;2023-02-11T05:15:45;51939.28;;;-142.34;29.60
12951;BME280;6540;50.858;7.232;2023-02-11T05:18:10;51939.28;;;-142.34;30.00
12951;BME280;6540;50.858;7.232;2023-02-11T05:20:38;51947.34;;;-142.34;29.19
12951;BME280;6540;50.858;7.232;2023-02-11T05:23:04;51935.25;;;-142.34;28.58
12951;BME280;6540;50.858;7.232;2023-02-11T05:25:29;51927.16;;;-142.34;28.46
12951;BME280;6540;50.858;7.232;2023-02-11T05:27:54;51935.25;;;-142.34;28.56
12951;BME280;6540;50.858;7.232;2023-02-11T05:30:20;51927.16;;;-142.34;28.37
12951;BME280;6540;50.858;7.232;2023-02-11T05:32:45;51955.41;;;-142.34;28.46
12951;BME280;6540;50.858;7.232;2023-02-11T05:35:11;51945.31;;;-142.34;28.71
12951;BME280;6540;50.858;7.232;2023-02-11T05:37:36;51917.06;;;-142.34;28.44
12951;BME280;6540;50.858;7.232;2023-02-11T05:40:02;51941.28;;;-142.34;28.85
12951;BME280;6540;50.858;7.232;2023-02-11T05:42:28;51939.28;;;-142.34;28.53
12951;BME280;6540;50.858;7.232;2023-02-11T05:44:53;51909.00;;;-142.34;28.39
12951;BME280;6540;50.858;7.232;2023-02-11T05:47:18;51929.19;;;-142.34;28.55
12951;BME280;6540;50.858;7.232;2023-02-11T05:49:44;51915.06;;;-142.34;28.57
12951;BME280;6540;50.858;7.232;2023-02-11T05:52:09;51963.47;;;-142.34;28.71
12951;BME280;6540;50.858;7.232;2023-02-11T05:54:34;51955.41;;;-142.34;28.49
12951;BME280;6540;50.858;7.232;2023-02-11T05:57:00;51898.94;;;-142.34;28.57
12951;BME280;6540;50.858;7.232;2023-02-11T05:59:25;51975.59;;;-142.34;28.89
12951;BME280;6540;50.858;7.232;2023-02-11T06:01:50;51915.06;;;-142.34;28.84
12951;BME280;6540;50.858;7.232;2023-02-11T06:04:16;51951.38;;;-142.34;28.72
12951;BME280;6540;50.858;7.232;2023-02-11T06:06:41;51951.38;;;-142.34;28.82
12951;BME280;6540;50.858;7.232;2023-02-11T06:09:08;51943.31;;;-142.34;28.78
12951;BME280;6540;50.858;7.232;2023-02-11T06:11:34;51898.94;;;-142.34;28.39
12951;BME280;6540;50.858;7.232;2023-02-11T06:14:00;51921.13;;;-142.34;28.64
12951;BME280;6540;50.858;7.232;2023-02-11T06:16:25;51915.06;;;-142.34;28.82
12951;BME280;6540;50.858;7.232;2023-02-11T06:18:50;51959.44;;;-142.34;28.66
12951;BME280;6540;50.858;7.232;2023-02-11T06:21:16;51939.28;;;-142.34;28.66
12951;BME280;6540;50.858;7.232;2023-02-11T06:23:41;51939.28;;;-142.34;28.58
12951;BME280;6540;50.858;7.232;2023-02-11T06:26:18;51939.28;;;-142.34;28.54
12951;BME280;6540;50.858;7.232;2023-02-11T06:28:44;51915.06;;;-142.34;28.65
12951;BME280;6540;50.858;7.232;2023-02-11T06:31:10;51937.25;;;-142.34;28.67
12951;BME280;6540;50.858;7.232;2023-02-11T06:33:36;51919.09;;;-142.34;29.10
12951;BME280;6540;50.858;7.232;2023-02-11T06:36:03;51913.03;;;-142.34;28.83
12951;BME280;6540;50.858;7.232;2023-02-11T06:38:29;51902.97;;;-142.34;28.93
12951;BME280;6540;50.858;7.232;2023-02-11T06:40:55;51886.81;;;-142.34;29.46
12951;BME280;6540;50.858;7.232;2023-02-11T06:43:20;51917.06;;;-142.34;29.48
12951;BME280;6540;50.858;7.232;2023-02-11T06:45:52;51904.97;;;-142.34;29.23
12951;BME280;6540;50.858;7.232;2023-02-11T06:48:18;51911.03;;;-142.34;29.04
12951;BME280;6540;50.858;7.232;2023-02-11T06:50:44;51935.25;;;-142.34;28.72
12951;BME280;6540;50.858;7.232;2023-02-11T06:53:09;51911.03;;;-142.34;28.87
12951;BME280;6540;50.858;7.232;2023-02-11T06:55:35;51907.00;;;-142.34;28.97
12951;BME280;6540;50.858;7.232;2023-02-11T06:58:00;51923.13;;;-142.34;28.92
12951;BME280;6540;50.858;7.232;2023-02-11T07:00:25;51921.13;;;-142.34;29.01
12951;BME280;6540;50.858;7.232;2023-02-11T07:02:53;51927.16;;;-142.34;28.85
12951;BME280;6540;50.858;7.232;2023-02-11T07:05:19;51923.13;;;-142.34;28.62
12951;BME280;6540;50.858;7.232;2023-02-11T07:07:44;51911.03;;;-142.34;28.66
12951;BME280;6540;50.858;7.232;2023-02-11T07:10:10;51902.97;;;-142.34;28.73
12951;BME280;6540;50.858;7.232;2023-02-11T07:12:35;51945.31;;;-142.34;28.75
12951;BME280;6540;50.858;7.232;2023-02-11T07:15:00;51907.00;;;-142.34;29.00
12951;BME280;6540;50.858;7.232;2023-02-11T07:17:26;51894.88;;;-142.34;28.89
12951;BME280;6540;50.858;7.232;2023-02-11T07:19:52;51941.28;;;-142.34;28.85
12951;BME280;6540;50.858;7.232;2023-02-11T07:22:17;51923.13;;;-142.34;28.80
12951;BME280;6540;50.858;7.232;2023-02-11T07:24:43;51927.16;;;-142.34;28.63
12951;BME280;6540;50.858;7.232;2023-02-11T07:27:08;51907.00;;;-142.34;28.88
12951;BME280;6540;50.858;7.232;2023-02-11T07:29:34;51919.09;;;-142.34;28.61
12951;BME280;6540;50.858;7.232;2023-02-11T07:31:59;51921.13;;;-142.34;29.01
12951;BME280;6540;50.858;7.232;2023-02-11T07:34:24;51904.97;;;-142.34;28.58
12951;BME280;6540;50.858;7.232;2023-02-11T07:36:50;51947.34;;;-142.34;28.62
12951;BME280;6540;50.858;7.232;2023-02-11T07:39:15;51913.03;;;-142.34;28.86
12951;BME280;6540;50.858;7.232;2023-02-11T07:41:40;51894.88;;;-142.34;28.72
12951;BME280;6540;50.858;7.232;2023-02-11T07:44:07;51894.88;;;-142.34;28.63
12951;BME280;6540;50.858;7.232;2023-02-11T07:46:32;51927.16;;;-142.34;28.47
12951;BME280;6540;50.858;7.232;2023-02-11T07:48:59;51935.25;;;-142.34;28.32
12951;BME280;6540;50.858;7.232;2023-02-11T07:51:29;51902.97;;;-142.34;28.56
12951;BME280;6540;50.858;7.232;2023-02-11T07:53:57;51911.03;;;-142.34;28.86
12951;BME280;6540;50.858;7.232;2023-02-11T07:56:24;51894.88;;;-142.34;29.29
12951;BME280;6540;50.858;7.232;2023-02-11T07:58:49;51939.28;;;-142.34;29.17
12951;BME280;6540;50.858;7.232;2023-02-11T08:01:18;51909.00;;;-142.34;29.05
12951;BME280;6540;50.858;7.232;2023-02-11T08:03:46;51882.78;;;-142.34;29.14
12951;BME280;6540;50.858;7.232;2023-02-11T08:06:17;51935.25;;;-142.34;28.94
12951;BME280;6540;50.858;7.232;2023-02-11T08:08:45;51886.81;;;-142.34;29.97
12951;BME280;6540;50.858;7.232;2023-02-11T08:11:13;51917.06;;;-142.34;29.43
12951;BME280;6540;50.858;7.232;2023-02-11T08:13:38;51890.84;;;-142.34;29.30
12951;BME280;6540;50.858;7.232;2023-02-11T08:16:04;51925.16;;;-142.34;29.29
12951;BME280;6540;50.858;7.232;2023-02-11T08:18:31;51909.00;;;-142.34;30.07
12951;BME280;6540;50.858;7.232;2023-02-11T08:21:04;51882.78;;;-142.34;29.28
12951;BME280;6540;50.858;7.232;2023-02-11T08:23:29;51939.28;;;-142.34;29.48
12951;BME280;6540;50.858;7.232;2023-02-11T08:26:00;51911.03;;;-142.34;29.09
12951;BME280;6540;50.858;7.232;2023-02-11T08:28:25;51911.03;;;-142.34;29.05
12951;BME280;6540;50.858;7.232;2023-02-11T08:30:51;51898.94;;;-142.34;29.03
12951;BME280;6540;50.858;7.232;2023-02-11T08:33:16;51921.13;;;-142.34;29.07
12951;BME280;6540;50.858;7.232;2023-02-11T08:35:41;51915.06;;;-142.34;29.14
12951;BME280;6540;50.858;7.232;2023-02-11T08:38:07;51911.03;;;-142.34;29.63
12951;BME280;6540;50.858;7.232;2023-02-11T08:40:33;51919.09;;;-142.34;29.57
12951;BME280;6540;50.858;7.232;2023-02-11T08:42:58;51917.06;;;-142.34;29.10
12951;BME280;6540;50.858;7.232;2023-02-11T08:45:23;51919.09;;;-142.34;29.09
12951;BME280;6540;50.858;7.232;2023-02-11T08:47:49;51890.84;;;-142.34;29.33
12951;BME280;6540;50.858;7.232;2023-02-11T08:50:15;51907.00;;;-142.34;28.98
12951;BME280;6540;50.858;7.232;2023-02-11T08:52:40;51923.13;;;-142.34;29.09
12951;BME280;6540;50.858;7.232;2023-02-11T08:55:05;51882.78;;;-142.34;29.14
12951;BME280;6540;50.858;7.232;2023-02-11T08:57:31;51894.88;;;-142.34;29.27
12951;BME280;6540;50.858;7.232;2023-02-11T08:59:56;51911.03;;;-142.34;29.41
12951;BME280;6540;50.858;7.232;2023-02-11T09:02:22;51915.06;;;-142.34;29.23
12951;BME280;6540;50.858;7.232;2023-02-11T09:04:47;51902.97;;;-142.34;29.31
12951;BME280;6540;50.858;7.232;2023-02-11T09:07:13;51913.03;;;-142.34;29.30
12951;BME280;6540;50.858;7.232;2023-02-11T09:09:38;51923.13;;;-142.34;29.20
12951;BME280;6540;50.858;7.232;2023-02-11T09:12:04;51919.09;;;-142.34;30.68
12951;BME280;6540;50.858;7.232;2023-02-11T09:14:29;51902.97;;;-142.34;30.81
12951;BME280;6540;50.858;7.232;2023-02-11T09:16:55;51929.19;;;-142.34;30.32
12951;BME280;6540;50.858;7.232;2023-02-11T09:19:21;51894.88;;;-142.34;29.63
12951;BME280;6540;50.858;7.232;2023-02-11T09:21:47;51913.03;;;-142.34;29.63
12951;BME280;6540;50.858;7.232;2023-02-11T09:24:13;51890.84;;;-142.34;29.47
12951;BME280;6540;50.858;7.232;2023-02-11T09:26:40;51882.78;;;-142.34;29.37
12951;BME280;6540;50.858;7.232;2023-02-11T09:29:06;51902.97;;;-142.34;29.19
12951;BME280;6540;50.858;7.232;2023-02-11T09:31:32;51911.03;;;-142.34;29.36
12951;BME280;6540;50.858;7.232;2023-02-11T09:33:59;51874.72;;;-142.34;29.53
12951;BME280;6540;50.858;7.232;2023-02-11T09:36:28;51894.88;;;-142.34;29.61
12951;BME280;6540;50.858;7.232;2023-02-11T09:38:54;51866.66;;;-142.34;29.23
12951;BME280;6540;50.858;7.232;2023-02-11T09:41:31;51890.84;;;-142.34;28.90
12951;BME280;6540;50.858;7.232;2023-02-11T09:43:59;51882.78;;;-142.34;29.26
12951;BME280;6540;50.858;7.232;2023-02-11T09:46:31;51904.97;;;-142.34;29.30
12951;BME280;6540;50.858;7.232;2023-02-11T09:48:58;51902.97;;;-142.34;29.20
12951;BME280;6540;50.858;7.232;2023-02-11T09:51:33;51890.84;;;-142.34;29.26
12951;BME280;6540;50.858;7.232;2023-02-11T09:54:04;51898.94;;;-142.34;29.09
12951;BME280;6540;50.858;7.232;2023-02-11T09:56:31;51927.16;;;-142.34;29.26
12951;BME280;6540;50.858;7.232;2023-02-11T09:58:56;51915.06;;;-142.34;29.07
12951;BME280;6540;50.858;7.232;2023-02-11T10:01:36;51880.78;;;-142.34;29.09
12951;BME280;6540;50.858;7.232;2023-02-11T10:06:50;51874.72;;;-142.34;29.04
12951;BME280;6540;50.858;7.232;2023-02-11T10:09:27;51892.88;;;-142.34;29.00
12951;BME280;6540;50.858;7.232;2023-02-11T10:12:27;51890.84;;;-142.34;28.91
12951;BME280;6540;50.858;7.232;2023-02-11T10:20:35;51898.94;;;-142.34;29.31
12951;BME280;6540;50.858;7.232;2023-02-11T10:23:14;51878.75;;;-142.34;28.98
12951;BME280;6540;50.858;7.232;2023-02-11T10:25:45;51921.13;;;-142.34;29.10
12951;BME280;6540;50.858;7.232;2023-02-11T10:28:18;51923.13;;;-142.34;28.87
12951;BME280;6540;50.858;7.232;2023-02-11T10:31:01;51858.56;;;-142.34;28.78
12951;BME280;6540;50.858;7.232;2023-02-11T10:33:35;51898.94;;;-142.34;28.89
12951;BME280;6540;50.858;7.232;2023-02-11T10:36:06;51882.78;;;-142.34;29.19
12951;BME280;6540;50.858;7.232;2023-02-11T10:38:31;51904.97;;;-142.34;29.01
12951;BME280;6540;50.858;7.232;2023-02-11T10:40:58;51882.78;;;-142.34;29.48
12951;BME280;6540;50.858;7.232;2023-02-11T10:43:26;51868.66;;;-142.34;29.22
12951;BME280;6540;50.858;7.232;2023-02-11T10:45:54;51919.09;;;-142.34;29.27
12951;BME280;6540;50.858;7.232;2023-02-11T10:53:35;51886.81;;;-142.34;28.86
12951;BME280;6540;50.858;7.232;2023-02-11T10:56:00;51902.97;;;-142.34;29.79
12951;BME280;6540;50.858;7.232;2023-02-11T10:58:43;51886.81;;;-142.34;29.54
12951;BME280;6540;50.858;7.232;2023-02-11T11:01:10;51886.81;;;-142.34;29.50
12951;BME280;6540;50.858;7.232;2023-02-11T11:03:38;51880.78;;;-142.34;29.24
12951;BME280;6540;50.858;7.232;2023-02-11T11:06:10;51896.91;;;-142.34;29.19
12951;BME280;6540;50.858;7.232;2023-02-11T11:08:41;51904.97;;;-142.34;29.36
12951;BME280;6540;50.858;7.232;2023-02-11T11:11:10;51856.56;;;-142.34;29.34
12951;BME280;6540;50.858;7.232;2023-02-11T11:13:41;51868.66;;;-142.34;29.20
12951;BME280;6540;50.858;7.232;2023-02-11T11:16:36;51864.63;;;-142.34;29.16
12951;BME280;6540;50.858;7.232;2023-02-11T11:24:38;51878.75;;;-142.34;29.01
12951;BME280;6540;50.858;7.232;2023-02-11T11:27:05;51862.63;;;-142.34;29.62
12951;BME280;6540;50.858;7.232;2023-02-11T11:29:36;51874.72;;;-142.34;29.48
12951;BME280;6540;50.858;7.232;2023-02-11T11:32:19;51890.84;;;-142.34;29.26
12951;BME280;6540;50.858;7.232;2023-02-11T11:34:54;51900.94;;;-142.34;29.29
12951;BME280;6540;50.858;7.232;2023-02-11T11:37:32;51870.69;;;-142.34;29.17
12951;BME280;6540;50.858;7.232;2023-02-11T11:42:39;51902.97;;;-142.34;29.53
12951;BME280;6540;50.858;7.232;2023-02-11T11:47:43;51878.75;;;-142.34;30.29
12951;BME280;6540;50.858;7.232;2023-02-11T11:50:35;51872.69;;;-142.34;29.82
12951;BME280;6540;50.858;7.232;2023-02-11T11:55:37;51894.88;;;-142.34;30.17
12951;BME280;6540;50.858;7.232;2023-02-11T11:58:04;51886.81;;;-142.34;30.04
12951;BME280;6540;50.858;7.232;2023-02-11T12:14:11;51886.81;;;-142.34;29.21
12951;BME280;6540;50.858;7.232;2023-02-11T12:25:15;51890.84;;;-142.34;29.36
12951;BME280;6540;50.858;7.232;2023-02-11T12:28:06;51872.69;;;-142.34;28.68
12951;BME280;6540;50.858;7.232;2023-02-11T12:36:16;51888.84;;;-142.34;29.56
12951;BME280;6540;50.858;7.232;2023-02-11T12:42:17;51862.63;;;-142.34;29.22
12951;BME280;6540;50.858;7.232;2023-02-11T12:53:24;51874.72;;;-142.34;29.35
12951;BME280;6540;50.858;7.232;2023-02-11T12:55:58;51866.66;;;-142.34;29.31
12951;BME280;6540;50.858;7.232;2023-02-11T12:58:26;51898.94;;;-142.34;29.53
12951;BME280;6540;50.858;7.232;2023-02-11T13:01:00;51866.66;;;-142.34;29.15
12951;BME280;6540;50.858;7.232;2023-02-11T13:03:44;51890.84;;;-142.34;29.06
12951;BME280;6540;50.858;7.232;2023-02-11T13:06:17;51858.56;;;-142.34;29.35
12951;BME280;6540;50.858;7.232;2023-02-11T13:08:51;51896.91;;;-142.34;29.19
12951;BME280;6540;50.858;7.232;2023-02-11T13:11:22;51866.66;;;-142.34;28.96
12951;BME280;6540;50.858;7.232;2023-02-11T13:13:55;51886.81;;;-142.34;28.90
12951;BME280;6540;50.858;7.232;2023-02-11T13:16:41;51888.84;;;-142.34;28.95
12951;BME280;6540;50.858;7.232;2023-02-11T13:24:33;51868.66;;;-142.34;29.41
12951;BME280;6540;50.858;7.232;2023-02-11T13:27:40;51868.66;;;-142.34;28.80
12951;BME280;6540;50.858;7.232;2023-02-11T13:35:33;51884.81;;;-142.34;29.02
12951;BME280;6540;50.858;7.232;2023-02-11T13:38:01;51858.56;;;-142.34;29.18
12951;BME280;6540;50.858;7.232;2023-02-11T13:40:31;51882.78;;;-142.34;29.48
12951;BME280;6540;50.858;7.232;2023-02-11T13:43:03;51850.50;;;-142.34;29.18
12951;BME280;6540;50.858;7.232;2023-02-11T13:45:45;51846.47;;;-142.34;29.48
12951;BME280;6540;50.858;7.232;2023-02-11T13:48:21;51902.97;;;-142.34;29.90
12951;BME280;6540;50.858;7.232;2023-02-11T13:50:53;51866.66;;;-142.34;29.56
12951;BME280;6540;50.858;7.232;2023-02-11T13:53:20;51850.50;;;-142.34;29.21
12951;BME280;6540;50.858;7.232;2023-02-11T13:55:51;51880.78;;;-142.34;29.27
12951;BME280;6540;50.858;7.232;2023-02-11T13:58:36;51872.69;;;-142.34;29.58
12951;BME280;6540;50.858;7.232;2023-02-11T14:01:04;51866.66;;;-142.34;29.18
12951;BME280;6540;50.858;7.232;2023-02-11T14:03:36;51876.72;;;-142.34;28.95
12951;BME280;6540;50.858;7.232;2023-02-11T14:06:21;51902.97;;;-142.34;28.75
12951;BME280;6540;50.858;7.232;2023-02-11T14:09:08;51872.69;;;-142.34;29.12
12951;BME280;6540;50.858;7.232;2023-02-11T14:14:13;51838.41;;;-142.34;29.09
12951;BME280;6540;50.858;7.232;2023-02-11T14:19:43;51874.72;;;-142.34;29.28
12951;BME280;6540;50.858;7.232;2023-02-11T14:22:40;51838.41;;;-142.34;28.66
12951;BME280;6540;50.858;7.232;2023-02-11T14:25:21;51902.97;;;-142.34;28.66
12951;BME280;6540;50.858;7.232;2023-02-11T14:27:51;51822.25;;;-142.34;28.71
12951;BME280;6540;50.858;7.232;2023-02-11T14:30:47;51828.31;;;-142.34;28.67
12951;BME280;6540;50.858;7.232;2023-02-11T14:33:42;51858.56;;;-142.34;28.36
12951;BME280;6540;50.858;7.232;2023-02-11T14:36:39;51846.47;;;-142.34;28.62
12951;BME280;6540;50.858;7.232;2023-02-11T14:39:23;51846.47;;;-142.34;28.76
12951;BME280;6540;50.858;7.232;2023-02-11T14:41:53;51846.47;;;-142.34;28.98
12951;BME280;6540;50.858;7.232;2023-02-11T14:44:25;51862.63;;;-142.34;28.63
12951;BME280;6540;50.858;7.232;2023-02-11T14:46:53;51866.66;;;-142.34;29.20
12951;BME280;6540;50.858;7.232;2023-02-11T14:49:48;51812.19;;;-142.34;28.81